sensor_id;sensor_type;location;lat;lon;timestamp;temperature;humidity
46364;DHT22;32071;49.036;9.344;2023-08-07T00:01:08;11.70;99.90
46364;DHT22;32071;49.036;9.344;2023-08-07T00:03:34;11.70;99.90
46364;DHT22;32071;49.036;9.344;2023-08-07T00:06:01;11.70;99.90
46364;DHT22;32071;49.036;9.344;2023-08-07T00:08:26;11.60;99.90
46364;DHT22;32071;49.036;9.344;2023-08-07T00:10:52;11.70;99.90
46364;DHT22;32071;49.036;9.344;2023-08-07T00:13:17;11.60;99.90
46364;DHT22;32071;49.036;9.344;2023-08-07T00:15:43;11.60;99.90
46364;DHT22;32071;49.036;9.344;2023-08-07T00:18:09;11.60;99.90
46364;DHT22;32071;49.036;9.344;2023-08-07T00:20:35;11.60;99.90
46364;DHT22;32071;49.036;9.344;2023-08-07T00:23:00;11.60;99.90
46364;DHT22;32071;49.036;9.344;2023-08-07T00:25:26;11.60;99.90
46364;DHT22;32071;49.036;9.344;2023-08-07T00:27:52;11.60;99.90
46364;DHT22;32071;49.036;9.344;2023-08-07T00:30:18;11.60;99.90
46364;DHT22;32071;49.036;9.344;2023-08-07T00:32:43;11.60;99.90
46364;DHT22;32071;49.036;9.344;2023-08-07T00:35:09;11.70;99.90
46364;DHT22;32071;49.036;9.344;2023-08-07T00:37:34;11.70;99.90
46364;DHT22;32071;49.036;9.344;2023-08-07T00:40:00;11.70;99.90
46364;DHT22;32071;49.036;9.344;2023-08-07T00:42:25;11.60;99.90
46364;DHT22;32071;49.036;9.344;2023-08-07T00:44:51;11.60;99.90
46364;DHT22;32071;49.036;9.344;2023-08-07T00:47:16;11.70;99.90
46364;DHT22;32071;49.036;9.344;2023-08-07T00:49:42;11.70;99.90
46364;DHT22;32071;49.036;9.344;2023-08-07T00:52:08;11.70;99.90
46364;DHT22;32071;49.036;9.344;2023-08-07T00:54:34;11.70;99.90
46364;DHT22;32071;49.036;9.344;2023-08-07T00:57:11;11.70;99.90
46364;DHT22;32071;49.036;9.344;2023-08-07T00:59:40;11.70;99.90
46364;DHT22;32071;49.036;9.344;2023-08-07T01:02:07;11.70;99.90
46364;DHT22;32071;49.036;9.344;2023-08-07T01:04:32;11.70;99.90
46364;DHT22;32071;49.036;9.344;2023-08-07T01:06:58;11.70;99.90
46364;DHT22;32071;49.036;9.344;2023-08-07T01:09:24;11.70;99.90
46364;DHT22;32071;49.036;9.344;2023-08-07T01:11:57;11.70;99.90
46364;DHT22;32071;49.036;9.344;2023-08-07T01:14:47;11.80;99.90
46364;DHT22;32071;49.036;9.344;2023-08-07T01:17:16;11.80;99.90
46364;DHT22;32071;49.036;9.344;2023-08-07T01:19:42;11.80;99.90
46364;DHT22;32071;49.036;9.344;2023-08-07T01:24:39;11.80;99.90
46364;DHT22;32071;49.036;9.344;2023-08-07T01:30:35;11.80;99.90
46364;DHT22;32071;49.036;9.344;2023-08-07T01:35:40;11.80;99.90
46364;DHT22;32071;49.036;9.344;2023-08-07T01:38:08;11.80;99.90
46364;DHT22;32071;49.036;9.344;2023-08-07T01:40:34;11.80;99.90
46364;DHT22;32071;49.036;9.344;2023-08-07T01:43:01;11.80;99.90
46364;DHT22;32071;49.036;9.344;2023-08-07T01:45:28;11.80;99.90
46364;DHT22;32071;49.036;9.344;2023-08-07T01:47:54;11.80;99.90
46364;DHT22;32071;49.036;9.344;2023-08-07T01:50:21;11.80;99.90
46364;DHT22;32071;49.036;9.344;2023-08-07T01:52:47;11.80;99.90
46364;DHT22;32071;49.036;9.344;2023-08-07T01:55:17;11.80;99.90
46364;DHT22;32071;49.036;9.344;2023-08-07T01:57:43;11.80;99.90
46364;DHT22;32071;49.036;9.344;2023-08-07T02:00:09;11.80;99.90
46364;DHT22;32071;49.036;9.344;2023-08-07T02:02:36;11.80;99.90
46364;DHT22;32071;49.036;9.344;2023-08-07T02:05:01;11.80;99.90
46364;DHT22;32071;49.036;9.344;2023-08-07T02:07:27;11.80;99.90
46364;DHT22;32071;49.036;9.344;2023-08-07T02:09:53;11.80;99.90
46364;DHT22;32071;49.036;9.344;2023-08-07T02:12:18;11.80;99.90
46364;DHT22;32071;49.036;9.344;2023-08-07T02:14:44;11.80;99.90
46364;DHT22;32071;49.036;9.344;2023-08-07T02:17:09;11.80;99.90
46364;DHT22;32071;49.036;9.344;2023-08-07T02:19:35;11.80;99.90
46364;DHT22;32071;49.036;9.344;2023-08-07T02:22:01;11.80;99.90
46364;DHT22;32071;49.036;9.344;2023-08-07T02:24:26;11.70;99.90
46364;DHT22;32071;49.036;9.344;2023-08-07T02:26:52;11.70;99.90
46364;DHT22;32071;49.036;9.344;2023-08-07T02:29:18;11.70;99.90
46364;DHT22;32071;49.036;9.344;2023-08-07T02:31:43;11.60;99.90
46364;DHT22;32071;49.036;9.344;2023-08-07T02:34:09;11.60;99.90
46364;DHT22;32071;49.036;9.344;2023-08-07T02:36:34;11.60;99.90
46364;DHT22;32071;49.036;9.344;2023-08-07T02:39:00;11.60;99.90
46364;DHT22;32071;49.036;9.344;2023-08-07T02:41:25;11.60;99.90
46364;DHT22;32071;49.036;9.344;2023-08-07T02:43:51;11.60;99.90
46364;DHT22;32071;49.036;9.344;2023-08-07T02:46:16;11.60;99.90
46364;DHT22;32071;49.036;9.344;2023-08-07T02:48:43;11.60;99.90
46364;DHT22;32071;49.036;9.344;2023-08-07T02:51:09;11.60;99.90
46364;DHT22;32071;49.036;9.344;2023-08-07T02:53:35;11.60;99.90
46364;DHT22;32071;49.036;9.344;2023-08-07T02:56:01;11.60;99.90
46364;DHT22;32071;49.036;9.344;2023-08-07T02:58:26;11.70;99.90
46364;DHT22;32071;49.036;9.344;2023-08-07T03:00:52;11.70;99.90
46364;DHT22;32071;49.036;9.344;2023-08-07T03:03:17;11.70;99.90
46364;DHT22;32071;49.036;9.344;2023-08-07T03:05:50;11.70;99.90
46364;DHT22;32071;49.036;9.344;2023-08-07T03:08:16;11.70;99.90
46364;DHT22;32071;49.036;9.344;2023-08-07T03:10:41;11.70;99.90
46364;DHT22;32071;49.036;9.344;2023-08-07T03:13:07;11.70;99.90
46364;DHT22;32071;49.036;9.344;2023-08-07T03:15:32;11.70;99.90
46364;DHT22;32071;49.036;9.344;2023-08-07T03:17:58;11.70;99.90
46364;DHT22;32071;49.036;9.344;2023-08-07T03:20:23;11.70;99.90
46364;DHT22;32071;49.036;9.344;2023-08-07T03:22:49;11.70;99.90
46364;DHT22;32071;49.036;9.344;2023-08-07T03:25:15;11.70;99.90
46364;DHT22;32071;49.036;9.344;2023-08-07T03:27:40;11.70;99.90
46364;DHT22;32071;49.036;9.344;2023-08-07T03:30:06;11.70;99.90
46364;DHT22;32071;49.036;9.344;2023-08-07T03:32:32;11.70;99.90
46364;DHT22;32071;49.036;9.344;2023-08-07T03:34:57;11.70;99.90
46364;DHT22;32071;49.036;9.344;2023-08-07T03:37:23;11.80;99.90
46364;DHT22;32071;49.036;9.344;2023-08-07T03:39:49;11.80;99.90
46364;DHT22;32071;49.036;9.344;2023-08-07T03:42:15;11.80;99.90
46364;DHT22;32071;49.036;9.344;2023-08-07T03:44:40;11.80;99.90
46364;DHT22;32071;49.036;9.344;2023-08-07T03:47:06;11.80;99.90
46364;DHT22;32071;49.036;9.344;2023-08-07T03:49:32;11.70;99.90
46364;DHT22;32071;49.036;9.344;2023-08-07T03:51:57;11.70;99.90
46364;DHT22;32071;49.036;9.344;2023-08-07T03:54:24;11.70;99.90
46364;DHT22;32071;49.036;9.344;2023-08-07T03:56:50;11.70;99.90
46364;DHT22;32071;49.036;9.344;2023-08-07T03:59:16;11.70;99.90
46364;DHT22;32071;49.036;9.344;2023-08-07T04:01:42;11.70;99.90
46364;DHT22;32071;49.036;9.344;2023-08-07T04:04:08;11.70;99.90
46364;DHT22;32071;49.036;9.344;2023-08-07T04:06:33;11.70;99.90
46364;DHT22;32071;49.036;9.344;2023-08-07T04:08:59;11.70;99.90
46364;DHT22;32071;49.036;9.344;2023-08-07T04:11:24;11.80;99.90
46364;DHT22;32071;49.036;9.344;2023-08-07T04:13:50;11.70;99.90
46364;DHT22;32071;49.036;9.344;2023-08-07T04:16:16;11.70;99.90
46364;DHT22;32071;49.036;9.344;2023-08-07T04:18:42;11.60;99.90
46364;DHT22;32071;49.036;9.344;2023-08-07T04:21:07;11.60;99.90
46364;DHT22;32071;49.036;9.344;2023-08-07T04:23:33;11.60;99.90
46364;DHT22;32071;49.036;9.344;2023-08-07T04:25:59;11.50;99.90
46364;DHT22;32071;49.036;9.344;2023-08-07T04:28:27;11.60;99.90
46364;DHT22;32071;49.036;9.344;2023-08-07T04:30:52;11.60;99.90
46364;DHT22;32071;49.036;9.344;2023-08-07T04:33:19;11.60;99.90
46364;DHT22;32071;49.036;9.344;2023-08-07T04:35:45;11.60;99.90
46364;DHT22;32071;49.036;9.344;2023-08-07T04:38:12;11.60;99.90
46364;DHT22;32071;49.036;9.344;2023-08-07T04:40:38;11.60;99.90
46364;DHT22;32071;49.036;9.344;2023-08-07T04:43:08;11.60;99.90
46364;DHT22;32071;49.036;9.344;2023-08-07T04:45:33;11.70;99.90
46364;DHT22;32071;49.036;9.344;2023-08-07T04:47:59;11.70;99.90
46364;DHT22;32071;49.036;9.344;2023-08-07T04:50:24;11.70;99.90
46364;DHT22;32071;49.036;9.344;2023-08-07T04:52:50;11.70;99.90
46364;DHT22;32071;49.036;9.344;2023-08-07T04:55:16;11.70;99.90
46364;DHT22;32071;49.036;9.344;2023-08-07T04:57:41;11.80;99.90
46364;DHT22;32071;49.036;9.344;2023-08-07T05:00:07;11.80;99.90
46364;DHT22;32071;49.036;9.344;2023-08-07T05:02:33;11.80;99.90
46364;DHT22;32071;49.036;9.344;2023-08-07T05:04:59;11.80;99.90
46364;DHT22;32071;49.036;9.344;2023-08-07T05:07:24;11.80;99.90
46364;DHT22;32071;49.036;9.344;2023-08-07T05:09:50;11.80;99.90
46364;DHT22;32071;49.036;9.344;2023-08-07T05:12:16;11.80;99.90
46364;DHT22;32071;49.036;9.344;2023-08-07T05:14:41;11.80;99.90
46364;DHT22;32071;49.036;9.344;2023-08-07T05:17:07;11.90;99.90
46364;DHT22;32071;49.036;9.344;2023-08-07T05:19:32;11.90;99.90
46364;DHT22;32071;49.036;9.344;2023-08-07T05:21:58;11.90;99.90
46364;DHT22;32071;49.036;9.344;2023-08-07T05:24:23;11.90;99.90
46364;DHT22;32071;49.036;9.344;2023-08-07T05:26:49;11.90;99.90
46364;DHT22;32071;49.036;9.344;2023-08-07T05:29:15;11.90;99.90
46364;DHT22;32071;49.036;9.344;2023-08-07T05:31:40;11.90;99.90
46364;DHT22;32071;49.036;9.344;2023-08-07T05:34:06;11.80;99.90
46364;DHT22;32071;49.036;9.344;2023-08-07T05:36:32;11.80;99.90
46364;DHT22;32071;49.036;9.344;2023-08-07T05:38:58;11.80;99.90
46364;DHT22;32071;49.036;9.344;2023-08-07T05:41:23;11.80;99.90
46364;DHT22;32071;49.036;9.344;2023-08-07T05:43:50;11.80;99.90
46364;DHT22;32071;49.036;9.344;2023-08-07T05:46:16;11.80;99.90
46364;DHT22;32071;49.036;9.344;2023-08-07T05:48:41;11.80;99.90
46364;DHT22;32071;49.036;9.344;2023-08-07T05:51:07;11.90;99.90
46364;DHT22;32071;49.036;9.344;2023-08-07T05:53:34;11.90;99.90
46364;DHT22;32071;49.036;9.344;2023-08-07T05:56:00;11.90;99.90
46364;DHT22;32071;49.036;9.344;2023-08-07T05:58:25;12.00;99.90
46364;DHT22;32071;49.036;9.344;2023-08-07T06:00:51;12.00;99.90
46364;DHT22;32071;49.036;9.344;2023-08-07T06:03:17;12.00;99.90
46364;DHT22;32071;49.036;9.344;2023-08-07T06:05:42;12.10;99.90
46364;DHT22;32071;49.036;9.344;2023-08-07T06:08:08;12.10;99.90
46364;DHT22;32071;49.036;9.344;2023-08-07T06:10:34;12.10;99.90
46364;DHT22;32071;49.036;9.344;2023-08-07T06:12:59;12.20;99.90
46364;DHT22;32071;49.036;9.344;2023-08-07T06:15:25;12.20;99.90
46364;DHT22;32071;49.036;9.344;2023-08-07T06:17:50;12.20;99.90
46364;DHT22;32071;49.036;9.344;2023-08-07T06:20:17;12.30;99.90
46364;DHT22;32071;49.036;9.344;2023-08-07T06:22:43;12.30;99.90
46364;DHT22;32071;49.036;9.344;2023-08-07T06:25:08;12.30;99.90
46364;DHT22;32071;49.036;9.344;2023-08-07T06:27:34;12.40;99.90
46364;DHT22;32071;49.036;9.344;2023-08-07T06:30:00;12.40;99.90
46364;DHT22;32071;49.036;9.344;2023-08-07T06:32:25;12.40;99.90
46364;DHT22;32071;49.036;9.344;2023-08-07T06:34:52;12.40;99.90
46364;DHT22;32071;49.036;9.344;2023-08-07T06:37:17;12.50;99.90
46364;DHT22;32071;49.036;9.344;2023-08-07T06:39:43;12.50;99.90
46364;DHT22;32071;49.036;9.344;2023-08-07T06:42:09;12.60;99.90
46364;DHT22;32071;49.036;9.344;2023-08-07T06:44:34;12.60;99.90
46364;DHT22;32071;49.036;9.344;2023-08-07T06:47:00;12.70;99.90
46364;DHT22;32071;49.036;9.344;2023-08-07T06:49:26;12.70;99.90
46364;DHT22;32071;49.036;9.344;2023-08-07T06:51:51;12.80;99.90
46364;DHT22;32071;49.036;9.344;2023-08-07T06:54:17;12.80;99.90
46364;DHT22;32071;49.036;9.344;2023-08-07T06:56:43;12.90;99.90
46364;DHT22;32071;49.036;9.344;2023-08-07T06:59:10;12.90;99.90
46364;DHT22;32071;49.036;9.344;2023-08-07T07:01:35;13.00;99.90
46364;DHT22;32071;49.036;9.344;2023-08-07T07:04:01;13.00;99.90
46364;DHT22;32071;49.036;9.344;2023-08-07T07:06:27;13.10;99.90
46364;DHT22;32071;49.036;9.344;2023-08-07T07:08:52;13.10;99.90
46364;DHT22;32071;49.036;9.344;2023-08-07T07:11:20;13.10;99.90
46364;DHT22;32071;49.036;9.344;2023-08-07T07:13:46;13.10;99.90
46364;DHT22;32071;49.036;9.344;2023-08-07T07:16:12;13.10;99.90
46364;DHT22;32071;49.036;9.344;2023-08-07T07:18:39;13.00;99.90
46364;DHT22;32071;49.036;9.344;2023-08-07T07:21:04;13.00;99.90
46364;DHT22;32071;49.036;9.344;2023-08-07T07:23:30;13.00;99.90
46364;DHT22;32071;49.036;9.344;2023-08-07T07:25:56;12.90;99.90
46364;DHT22;32071;49.036;9.344;2023-08-07T07:28:23;13.00;99.90
46364;DHT22;32071;49.036;9.344;2023-08-07T07:30:49;13.00;99.90
46364;DHT22;32071;49.036;9.344;2023-08-07T07:33:15;13.00;99.90
46364;DHT22;32071;49.036;9.344;2023-08-07T07:35:40;13.00;99.90
46364;DHT22;32071;49.036;9.344;2023-08-07T07:38:06;13.10;99.90
46364;DHT22;32071;49.036;9.344;2023-08-07T07:40:32;13.10;99.90
46364;DHT22;32071;49.036;9.344;2023-08-07T07:42:57;13.10;99.90
46364;DHT22;32071;49.036;9.344;2023-08-07T07:45:23;13.10;99.90
46364;DHT22;32071;49.036;9.344;2023-08-07T07:47:48;13.10;99.90
46364;DHT22;32071;49.036;9.344;2023-08-07T07:50:14;13.10;99.90
46364;DHT22;32071;49.036;9.344;2023-08-07T07:52:39;13.10;99.90
46364;DHT22;32071;49.036;9.344;2023-08-07T07:55:06;13.00;99.90
46364;DHT22;32071;49.036;9.344;2023-08-07T07:57:31;13.10;99.90
46364;DHT22;32071;49.036;9.344;2023-08-07T07:59:57;13.10;99.90
46364;DHT22;32071;49.036;9.344;2023-08-07T08:02:23;13.10;99.90
46364;DHT22;32071;49.036;9.344;2023-08-07T08:04:51;13.10;99.90
46364;DHT22;32071;49.036;9.344;2023-08-07T08:07:17;13.20;99.90
46364;DHT22;32071;49.036;9.344;2023-08-07T08:09:43;13.20;99.90
46364;DHT22;32071;49.036;9.344;2023-08-07T08:12:10;13.20;99.90
46364;DHT22;32071;49.036;9.344;2023-08-07T08:14:35;13.30;99.90
46364;DHT22;32071;49.036;9.344;2023-08-07T08:17:01;13.40;99.90
46364;DHT22;32071;49.036;9.344;2023-08-07T08:19:27;13.50;99.90
46364;DHT22;32071;49.036;9.344;2023-08-07T08:21:52;13.50;99.90
46364;DHT22;32071;49.036;9.344;2023-08-07T08:24:18;13.60;99.90
46364;DHT22;32071;49.036;9.344;2023-08-07T08:26:44;13.70;99.90
46364;DHT22;32071;49.036;9.344;2023-08-07T08:29:09;13.70;99.90
46364;DHT22;32071;49.036;9.344;2023-08-07T08:31:35;13.80;99.90
46364;DHT22;32071;49.036;9.344;2023-08-07T08:34:00;13.90;99.90
46364;DHT22;32071;49.036;9.344;2023-08-07T08:36:26;14.10;99.90
46364;DHT22;32071;49.036;9.344;2023-08-07T08:38:52;14.10;99.90
46364;DHT22;32071;49.036;9.344;2023-08-07T08:41:18;14.10;99.90
46364;DHT22;32071;49.036;9.344;2023-08-07T08:43:46;14.00;99.90
46364;DHT22;32071;49.036;9.344;2023-08-07T08:46:15;14.00;99.90
46364;DHT22;32071;49.036;9.344;2023-08-07T08:48:45;13.90;99.90
46364;DHT22;32071;49.036;9.344;2023-08-07T08:51:12;14.00;99.90
46364;DHT22;32071;49.036;9.344;2023-08-07T08:53:38;14.00;99.90
46364;DHT22;32071;49.036;9.344;2023-08-07T08:56:05;14.10;99.90
46364;DHT22;32071;49.036;9.344;2023-08-07T08:58:32;14.20;99.90
46364;DHT22;32071;49.036;9.344;2023-08-07T09:00:57;14.40;99.90
46364;DHT22;32071;49.036;9.344;2023-08-07T09:03:24;14.50;99.90
46364;DHT22;32071;49.036;9.344;2023-08-07T09:05:52;14.50;99.90
46364;DHT22;32071;49.036;9.344;2023-08-07T09:08:20;14.40;99.90
46364;DHT22;32071;49.036;9.344;2023-08-07T09:10:46;14.30;99.90
46364;DHT22;32071;49.036;9.344;2023-08-07T09:13:14;14.30;99.90
46364;DHT22;32071;49.036;9.344;2023-08-07T09:15:40;14.40;99.90
46364;DHT22;32071;49.036;9.344;2023-08-07T09:18:06;14.50;99.90
46364;DHT22;32071;49.036;9.344;2023-08-07T09:20:35;14.70;99.90
46364;DHT22;32071;49.036;9.344;2023-08-07T09:23:00;14.80;99.90
46364;DHT22;32071;49.036;9.344;2023-08-07T09:25:27;15.00;99.90
46364;DHT22;32071;49.036;9.344;2023-08-07T09:27:55;15.10;99.90
46364;DHT22;32071;49.036;9.344;2023-08-07T09:30:21;15.40;99.90
46364;DHT22;32071;49.036;9.344;2023-08-07T09:32:49;15.50;99.90
46364;DHT22;32071;49.036;9.344;2023-08-07T09:35:15;15.60;99.90
46364;DHT22;32071;49.036;9.344;2023-08-07T09:37:43;15.60;99.90
46364;DHT22;32071;49.036;9.344;2023-08-07T09:40:08;15.70;99.90
46364;DHT22;32071;49.036;9.344;2023-08-07T09:42:37;15.80;99.90
46364;DHT22;32071;49.036;9.344;2023-08-07T09:45:27;15.80;99.90
46364;DHT22;32071;49.036;9.344;2023-08-07T09:48:01;16.00;99.90
46364;DHT22;32071;49.036;9.344;2023-08-07T09:50:27;15.90;99.90
46364;DHT22;32071;49.036;9.344;2023-08-07T09:52:53;15.80;99.90
46364;DHT22;32071;49.036;9.344;2023-08-07T09:55:20;15.90;99.90
46364;DHT22;32071;49.036;9.344;2023-08-07T09:57:46;16.10;99.90
46364;DHT22;32071;49.036;9.344;2023-08-07T10:00:12;16.20;99.90
46364;DHT22;32071;49.036;9.344;2023-08-07T10:02:40;16.20;99.90
46364;DHT22;32071;49.036;9.344;2023-08-07T10:05:06;16.20;99.90
46364;DHT22;32071;49.036;9.344;2023-08-07T10:07:34;16.40;99.90
46364;DHT22;32071;49.036;9.344;2023-08-07T10:10:00;16.50;99.90
46364;DHT22;32071;49.036;9.344;2023-08-07T10:12:27;16.70;99.90
46364;DHT22;32071;49.036;9.344;2023-08-07T10:14:53;16.60;99.90
46364;DHT22;32071;49.036;9.344;2023-08-07T10:17:21;16.60;99.90
46364;DHT22;32071;49.036;9.344;2023-08-07T10:19:47;16.50;99.90
46364;DHT22;32071;49.036;9.344;2023-08-07T10:22:20;16.40;99.90
46364;DHT22;32071;49.036;9.344;2023-08-07T10:24:50;16.40;99.90
46364;DHT22;32071;49.036;9.344;2023-08-07T10:27:18;16.40;99.90
46364;DHT22;32071;49.036;9.344;2023-08-07T10:29:47;16.60;99.90
46364;DHT22;32071;49.036;9.344;2023-08-07T10:32:15;16.70;99.90
46364;DHT22;32071;49.036;9.344;2023-08-07T10:34:47;16.90;99.90
46364;DHT22;32071;49.036;9.344;2023-08-07T10:40:04;17.30;99.90
46364;DHT22;32071;49.036;9.344;2023-08-07T10:43:16;17.20;99.90
46364;DHT22;32071;49.036;9.344;2023-08-07T10:45:42;17.10;99.90
46364;DHT22;32071;49.036;9.344;2023-08-07T10:48:11;16.80;99.90
46364;DHT22;32071;49.036;9.344;2023-08-07T10:53:40;16.30;99.90
46364;DHT22;32071;49.036;9.344;2023-08-07T10:56:09;16.00;99.90
46364;DHT22;32071;49.036;9.344;2023-08-07T10:58:37;15.80;99.90
46364;DHT22;32071;49.036;9.344;2023-08-07T11:04:11;15.60;99.90
46364;DHT22;32071;49.036;9.344;2023-08-07T11:06:37;15.70;99.90
46364;DHT22;32071;49.036;9.344;2023-08-07T11:09:05;15.80;99.90
46364;DHT22;32071;49.036;9.344;2023-08-07T11:11:38;15.80;99.90
46364;DHT22;32071;49.036;9.344;2023-08-07T11:14:06;15.90;99.90
46364;DHT22;32071;49.036;9.344;2023-08-07T11:16:33;16.00;99.90
46364;DHT22;32071;49.036;9.344;2023-08-07T11:19:00;15.90;99.90
46364;DHT22;32071;49.036;9.344;2023-08-07T11:21:25;15.80;99.90
46364;DHT22;32071;49.036;9.344;2023-08-07T11:23:51;15.80;99.90
46364;DHT22;32071;49.036;9.344;2023-08-07T11:26:17;15.70;99.90
46364;DHT22;32071;49.036;9.344;2023-08-07T11:28:47;15.70;99.90
46364;DHT22;32071;49.036;9.344;2023-08-07T11:31:12;15.70;99.90
46364;DHT22;32071;49.036;9.344;2023-08-07T11:33:38;15.50;99.90
46364;DHT22;32071;49.036;9.344;2023-08-07T11:36:12;15.40;99.90
46364;DHT22;32071;49.036;9.344;2023-08-07T11:38:42;15.40;99.90
46364;DHT22;32071;49.036;9.344;2023-08-07T11:41:14;15.50;99.90
46364;DHT22;32071;49.036;9.344;2023-08-07T11:43:42;15.70;99.90
46364;DHT22;32071;49.036;9.344;2023-08-07T11:46:10;15.90;99.90
46364;DHT22;32071;49.036;9.344;2023-08-07T11:48:37;16.00;99.90
46364;DHT22;32071;49.036;9.344;2023-08-07T11:51:04;16.00;99.90
46364;DHT22;32071;49.036;9.344;2023-08-07T11:53:32;16.00;99.90
46364;DHT22;32071;49.036;9.344;2023-08-07T11:56:02;16.00;99.90
46364;DHT22;32071;49.036;9.344;2023-08-07T11:58:35;16.00;99.90
46364;DHT22;32071;49.036;9.344;2023-08-07T12:01:05;16.00;99.90
46364;DHT22;32071;49.036;9.344;2023-08-07T12:03:32;16.10;99.90
46364;DHT22;32071;49.036;9.344;2023-08-07T12:06:02;16.10;99.90
46364;DHT22;32071;49.036;9.344;2023-08-07T12:08:36;16.00;99.90
46364;DHT22;32071;49.036;9.344;2023-08-07T12:11:04;16.00;99.90
46364;DHT22;32071;49.036;9.344;2023-08-07T12:13:31;16.00;99.90
46364;DHT22;32071;49.036;9.344;2023-08-07T12:15:58;16.10;99.90
46364;DHT22;32071;49.036;9.344;2023-08-07T12:18:26;16.10;99.90
46364;DHT22;32071;49.036;9.344;2023-08-07T12:20:52;16.30;99.90
46364;DHT22;32071;49.036;9.344;2023-08-07T12:23:21;16.20;99.90
46364;DHT22;32071;49.036;9.344;2023-08-07T12:25:47;16.20;99.90
46364;DHT22;32071;49.036;9.344;2023-08-07T12:28:13;16.10;99.90
46364;DHT22;32071;49.036;9.344;2023-08-07T12:30:39;15.80;99.90
46364;DHT22;32071;49.036;9.344;2023-08-07T12:33:05;15.60;99.90
46364;DHT22;32071;49.036;9.344;2023-08-07T12:35:31;15.40;99.90
46364;DHT22;32071;49.036;9.344;2023-08-07T12:37:57;15.20;99.90
46364;DHT22;32071;49.036;9.344;2023-08-07T12:40:23;14.80;99.90
46364;DHT22;32071;49.036;9.344;2023-08-07T12:42:49;14.50;99.90
46364;DHT22;32071;49.036;9.344;2023-08-07T12:45:15;14.20;99.90
46364;DHT22;32071;49.036;9.344;2023-08-07T12:47:42;14.00;99.90
46364;DHT22;32071;49.036;9.344;2023-08-07T12:50:08;13.90;99.90
46364;DHT22;32071;49.036;9.344;2023-08-07T12:52:34;13.80;99.90
46364;DHT22;32071;49.036;9.344;2023-08-07T12:55:00;13.70;99.90
46364;DHT22;32071;49.036;9.344;2023-08-07T12:57:26;13.70;99.90
46364;DHT22;32071;49.036;9.344;2023-08-07T12:59:52;13.70;99.90
46364;DHT22;32071;49.036;9.344;2023-08-07T13:02:17;13.80;99.90
46364;DHT22;32071;49.036;9.344;2023-08-07T13:04:43;13.90;99.90
46364;DHT22;32071;49.036;9.344;2023-08-07T13:07:09;14.00;99.90
46364;DHT22;32071;49.036;9.344;2023-08-07T13:09:34;14.10;99.90
46364;DHT22;32071;49.036;9.344;2023-08-07T13:12:00;14.20;99.90
46364;DHT22;32071;49.036;9.344;2023-08-07T13:14:25;14.30;99.90
46364;DHT22;32071;49.036;9.344;2023-08-07T13:16:51;14.40;99.90
46364;DHT22;32071;49.036;9.344;2023-08-07T13:19:17;14.60;99.90
46364;DHT22;32071;49.036;9.344;2023-08-07T13:21:42;14.70;99.90
46364;DHT22;32071;49.036;9.344;2023-08-07T13:24:08;14.70;99.90
46364;DHT22;32071;49.036;9.344;2023-08-07T13:26:33;14.80;99.90
46364;DHT22;32071;49.036;9.344;2023-08-07T13:28:59;14.90;99.90
46364;DHT22;32071;49.036;9.344;2023-08-07T13:31:25;15.00;99.90
46364;DHT22;32071;49.036;9.344;2023-08-07T13:33:50;15.00;99.90
46364;DHT22;32071;49.036;9.344;2023-08-07T13:36:16;15.10;99.90
46364;DHT22;32071;49.036;9.344;2023-08-07T13:38:41;15.20;99.90
46364;DHT22;32071;49.036;9.344;2023-08-07T13:41:07;15.50;99.90
46364;DHT22;32071;49.036;9.344;2023-08-07T13:43:33;15.70;99.90
46364;DHT22;32071;49.036;9.344;2023-08-07T13:45:58;16.20;99.90
46364;DHT22;32071;49.036;9.344;2023-08-07T13:48:24;16.80;99.90
46364;DHT22;32071;49.036;9.344;2023-08-07T13:50:53;17.60;99.90
46364;DHT22;32071;49.036;9.344;2023-08-07T13:53:19;18.00;99.90
46364;DHT22;32071;49.036;9.344;2023-08-07T13:55:46;18.00;99.90
46364;DHT22;32071;49.036;9.344;2023-08-07T13:58:12;18.00;99.90
46364;DHT22;32071;49.036;9.344;2023-08-07T14:00:40;18.30;99.90
46364;DHT22;32071;49.036;9.344;2023-08-07T14:03:08;18.80;99.90
46364;DHT22;32071;49.036;9.344;2023-08-07T14:05:34;19.30;99.90
46364;DHT22;32071;49.036;9.344;2023-08-07T14:07:59;19.30;99.90
46364;DHT22;32071;49.036;9.344;2023-08-07T14:10:25;19.40;99.90
46364;DHT22;32071;49.036;9.344;2023-08-07T14:12:51;19.50;99.90
46364;DHT22;32071;49.036;9.344;2023-08-07T14:15:16;19.60;99.90
46364;DHT22;32071;49.036;9.344;2023-08-07T14:17:42;19.40;99.90
46364;DHT22;32071;49.036;9.344;2023-08-07T14:20:08;18.80;99.90
46364;DHT22;32071;49.036;9.344;2023-08-07T14:22:34;18.40;99.90
46364;DHT22;32071;49.036;9.344;2023-08-07T14:25:02;18.30;99.90
46364;DHT22;32071;49.036;9.344;2023-08-07T14:27:28;18.00;99.90
46364;DHT22;32071;49.036;9.344;2023-08-07T14:29:54;17.70;99.90
46364;DHT22;32071;49.036;9.344;2023-08-07T14:32:19;17.30;99.90
46364;DHT22;32071;49.036;9.344;2023-08-07T14:34:45;17.00;99.90
46364;DHT22;32071;49.036;9.344;2023-08-07T14:37:13;16.70;99.90
46364;DHT22;32071;49.036;9.344;2023-08-07T14:39:38;16.50;99.90
46364;DHT22;32071;49.036;9.344;2023-08-07T14:42:04;16.30;99.90
46364;DHT22;32071;49.036;9.344;2023-08-07T14:44:30;16.30;99.90
46364;DHT22;32071;49.036;9.344;2023-08-07T14:46:55;16.30;99.90
46364;DHT22;32071;49.036;9.344;2023-08-07T14:49:21;16.30;99.90
46364;DHT22;32071;49.036;9.344;2023-08-07T14:51:46;16.30;99.90
46364;DHT22;32071;49.036;9.344;2023-08-07T14:54:12;16.30;99.90
46364;DHT22;32071;49.036;9.344;2023-08-07T14:56:38;16.40;99.90
46364;DHT22;32071;49.036;9.344;2023-08-07T14:59:03;16.50;99.90
46364;DHT22;32071;49.036;9.344;2023-08-07T15:01:29;16.80;99.90
46364;DHT22;32071;49.036;9.344;2023-08-07T15:03:54;17.50;99.90
46364;DHT22;32071;49.036;9.344;2023-08-07T15:06:20;18.40;99.90
46364;DHT22;32071;49.036;9.344;2023-08-07T15:08:47;18.70;99.90
46364;DHT22;32071;49.036;9.344;2023-08-07T15:11:12;19.00;99.90
46364;DHT22;32071;49.036;9.344;2023-08-07T15:13:38;19.50;99.90
46364;DHT22;32071;49.036;9.344;2023-08-07T15:16:05;20.00;99.90
46364;DHT22;32071;49.036;9.344;2023-08-07T15:18:31;20.30;99.90
46364;DHT22;32071;49.036;9.344;2023-08-07T15:20:58;20.00;99.90
46364;DHT22;32071;49.036;9.344;2023-08-07T15:23:24;19.70;99.90
46364;DHT22;32071;49.036;9.344;2023-08-07T15:25:50;19.40;99.90
46364;DHT22;32071;49.036;9.344;2023-08-07T15:28:15;19.00;99.90
46364;DHT22;32071;49.036;9.344;2023-08-07T15:30:47;18.60;99.90
46364;DHT22;32071;49.036;9.344;2023-08-07T15:33:13;18.40;99.90
46364;DHT22;32071;49.036;9.344;2023-08-07T15:35:39;18.00;99.90
46364;DHT22;32071;49.036;9.344;2023-08-07T15:38:04;17.80;99.90
46364;DHT22;32071;49.036;9.344;2023-08-07T15:40:30;17.70;99.90
46364;DHT22;32071;49.036;9.344;2023-08-07T15:42:55;19.50;99.90